Kapetan Christos — SVA7366 — position and weather

sailwx.info

Track history (hours):
 
Tides and Currents Weather Stations Pressure Air Temp Water Temp Dewpoint Dewpoint Depression Visibility Wind Speed Wind Dir Waves Ship Positions

Kapetan Christos

Last reported at 2018-Jun-21 12:31 UTC. Time now 2018-Jun-21 12:29 UTC.
Position N 38°02' E 023°33'.

Length 98 m; draft 3.8 m.

Type: Cargo ship. MMSI: 241495000.

Date/timePositionNaut miles runAvg speedWind from/ knotsBaromVisibWave heightAir tempDewpointWater temp
2018-Jun-21 12:31N 38°02' E 023°33'3 5.2
2018-Jun-21 12:00N 37°59' E 023°33'612.2
2018-Jun-21 11:31N 37°55' E 023°37'714.2
2018-Jun-21 11:01N 37°48' E 023°41'914.0
2018-Jun-21 10:24N 37°41' E 023°47'4613.8
2018-Jun-21 07:05N 37°31' E 024°44'114.2
2018-Jun-21 07:00N 37°31' E 024°45'914.0
2018-Jun-21 06:24N 37°31' E 024°56'513.9
2018-Jun-21 06:00N 37°30' E 025°03'713.5
2018-Jun-21 05:30N 37°29' E 025°11'713.5
2018-Jun-21 05:00N 37°28' E 025°19'0 0.3
2018-Jun-21 04:29N 37°28' E 025°19'0 0.0
2018-Jun-21 04:00N 37°28' E 025°19'1 2.6
2018-Jun-21 03:30N 37°27' E 025°18'713.4
2018-Jun-21 03:00N 37°21' E 025°18'714.1
2018-Jun-21 02:30N 37°14' E 025°20'714.2
2018-Jun-21 02:01N 37°07' E 025°22'1 1.2
2018-Jun-21 01:30N 37°06' E 025°22'0 0.0
2018-Jun-21 01:01N 37°06' E 025°22'0 0.0
2018-Jun-21 00:31N 37°06' E 025°22'1 2.4
2018-Jun-21 00:01N 37°07' E 025°22'713.6
2018-Jun-20 23:30N 37°14' E 025°20'713.6
2018-Jun-20 23:00N 37°21' E 025°18'713.0
2018-Jun-20 22:30N 37°27' E 025°18'1 2.2
2018-Jun-20 21:59N 37°28' E 025°19'0 0.0
2018-Jun-20 21:30N 37°28' E 025°19'3 5.3
2018-Jun-20 21:00N 37°28' E 025°16'613.0
2018-Jun-20 20:30N 37°27' E 025°08'813.0
2018-Jun-20 19:53N 37°26' E 024°58'7 5.9
2018-Jun-20 18:45N 37°31' E 024°52'313.0
2018-Jun-20 18:30N 37°31' E 024°48'5212.6
2018-Jun-20 14:25N 37°40' E 023°44'513.1
2018-Jun-20 14:00N 37°44' E 023°40'713.5
2018-Jun-20 13:30N 37°50' E 023°36'713.2
2018-Jun-20 13:00N 37°57' E 023°35'510.9
2018-Jun-20 12:31N 38°02' E 023°33'0 0.4
2018-Jun-20 12:00N 38°02' E 023°33'0 0.0
2018-Jun-20 11:30N 38°02' E 023°33'0 0.0
2018-Jun-20 11:00N 38°02' E 023°33'0 0.0
2018-Jun-20 10:31N 38°02' E 023°33'0 0.0
2018-Jun-20 10:01N 38°02' E 023°33'0 0.0
2018-Jun-20 09:30N 38°02' E 023°33'0 0.0
2018-Jun-20 09:01N 38°02' E 023°33'0 0.0
2018-Jun-20 08:31N 38°02' E 023°33'0 0.0
2018-Jun-20 08:01N 38°02' E 023°33'0 0.0
2018-Jun-20 07:31N 38°02' E 023°33'0 0.0
2018-Jun-20 07:00N 38°02' E 023°33'0 0.0
2018-Jun-20 06:30N 38°02' E 023°33'0 0.0
2018-Jun-20 06:00N 38°02' E 023°33'0 0.0
2018-Jun-20 05:31N 38°02' E 023°33'0 0.0
2018-Jun-20 05:00N 38°02' E 023°33'0 0.0
2018-Jun-20 04:30N 38°02' E 023°33'0 0.0
2018-Jun-20 04:00N 38°02' E 023°33'0 0.0
2018-Jun-20 03:30N 38°02' E 023°33'0 0.0
2018-Jun-20 03:00N 38°02' E 023°33'0 0.0
2018-Jun-20 02:30N 38°02' E 023°33'0 0.0
2018-Jun-20 02:01N 38°02' E 023°33'0 0.0
2018-Jun-20 01:31N 38°02' E 023°33'0 0.0
2018-Jun-20 01:00N 38°02' E 023°33'0 0.0
2018-Jun-20 00:29N 38°02' E 023°33'0 0.0
2018-Jun-20 00:00N 38°02' E 023°33'0 0.0
2018-Jun-19 23:30N 38°02' E 023°33'0 0.0
2018-Jun-19 23:00N 38°02' E 023°33'0 0.0
2018-Jun-19 22:30N 38°02' E 023°33'0 0.0
2018-Jun-19 22:01N 38°02' E 023°33'0 0.0
2018-Jun-19 21:31N 38°02' E 023°33'0 0.0
2018-Jun-19 21:00N 38°02' E 023°33'0 0.0
2018-Jun-19 20:30N 38°02' E 023°33'0 0.0
2018-Jun-19 20:00N 38°02' E 023°33'0 0.0
2018-Jun-19 19:31N 38°02' E 023°33'0 0.0
2018-Jun-19 19:00N 38°02' E 023°33'0 0.0
2018-Jun-19 18:30N 38°02' E 023°33'0 0.0
2018-Jun-19 18:00N 38°02' E 023°33'0 0.0
2018-Jun-19 17:30N 38°02' E 023°33'0 0.0
2018-Jun-19 17:00N 38°02' E 023°33'0 0.0
2018-Jun-19 16:30N 38°02' E 023°33'0 0.0
2018-Jun-19 16:00N 38°02' E 023°33'0 0.0
2018-Jun-19 15:30N 38°02' E 023°33'0 0.0
2018-Jun-19 15:00N 38°02' E 023°33'0 0.0
2018-Jun-19 14:30N 38°02' E 023°33'3 6.3
2018-Jun-19 14:01N 37°59' E 023°33'611.8
2018-Jun-19 13:30N 37°54' E 023°37'713.6
2018-Jun-19 13:01N 37°48' E 023°41'813.7
2018-Jun-19 12:26N 37°41' E 023°46'4913.7
2018-Jun-19 08:53N 37°32' E 024°47'814.3
2018-Jun-19 08:18N 37°31' E 024°57'513.7
2018-Jun-19 07:57N 37°30' E 025°03'614.0
2018-Jun-19 07:30N 37°29' E 025°11'713.6
2018-Jun-19 07:00N 37°28' E 025°19'0 0.6
2018-Jun-19 06:31N 37°28' E 025°19'0 0.2
2018-Jun-19 03:40N 37°28' E 025°19'0 0.2
2018-Jun-19 03:30N 37°28' E 025°19'0 0.0
2018-Jun-19 03:00N 37°28' E 025°19'0 0.0
2018-Jun-19 02:30N 37°28' E 025°19'0 0.0
2018-Jun-19 02:00N 37°28' E 025°19'0 0.1
2018-Jun-19 01:30N 37°28' E 025°19'0 0.1
2018-Jun-19 01:00N 37°28' E 025°19'0 0.0
2018-Jun-19 00:31N 37°28' E 025°19'0 0.1
2018-Jun-19 00:00N 37°28' E 025°19'0 0.0
2018-Jun-18 23:30N 37°28' E 025°19'0 0.0
2018-Jun-18 23:00N 37°28' E 025°19'0 0.0
2018-Jun-18 22:30N 37°28' E 025°19'0 0.0
2018-Jun-18 22:01N 37°28' E 025°19'0 0.1
2018-Jun-18 21:30N 37°28' E 025°19'0 0.7
2018-Jun-18 21:00N 37°28' E 025°19'0 0.0
2018-Jun-18 20:30N 37°28' E 025°19'0 0.0
2018-Jun-18 20:00N 37°28' E 025°19'0 0.1
2018-Jun-18 19:30N 37°28' E 025°19'5 9.2
2018-Jun-18 19:00N 37°28' E 025°14'713.1
2018-Jun-18 18:30N 37°29' E 025°06'713.4
2018-Jun-18 18:00N 37°31' E 024°57'713.3
2018-Jun-18 17:30N 37°31' E 024°49'5113.3
2018-Jun-18 13:41N 37°40' E 023°46'313.5
2018-Jun-18 13:30N 37°41' E 023°43'713.3
2018-Jun-18 13:00N 37°46' E 023°39'713.4
2018-Jun-18 12:30N 37°53' E 023°36'611.6
2018-Jun-18 12:00N 37°58' E 023°33'4 0.1
2018-Jun-17 09:14N 38°02' E 023°33'0 0.0
2018-Jun-17 09:00N 38°02' E 023°33'4 7.2
2018-Jun-17 08:30N 37°58' E 023°33'612.5
2018-Jun-17 08:00N 37°54' E 023°38'713.7
2018-Jun-17 07:31N 37°47' E 023°41'5212.8
2018-Jun-17 03:26N 37°32' E 024°44'614.0
2018-Jun-17 03:00N 37°32' E 024°52'913.5
2018-Jun-17 02:22N 37°30' E 025°02'513.5
2018-Jun-17 02:00N 37°29' E 025°08'713.7
2018-Jun-17 01:30N 37°28' E 025°17'2 4.3
2018-Jun-17 01:00N 37°28' E 025°19'0 0.0
2018-Jun-17 00:30N 37°28' E 025°19'0 0.0
2018-Jun-17 00:00N 37°28' E 025°19'0 0.0
2018-Jun-16 23:30N 37°28' E 025°19'0 0.0
2018-Jun-16 23:00N 37°28' E 025°19'0 0.9
2018-Jun-16 22:30N 37°27' E 025°19'611.9
2018-Jun-16 22:00N 37°22' E 025°17'713.8
2018-Jun-16 21:30N 37°15' E 025°18'713.7
2018-Jun-16 21:00N 37°08' E 025°19'713.6
2018-Jun-16 20:30N 37°01' E 025°17'10113.3
2018-Jun-16 12:56N 35°28' E 024°31'512.8
2018-Jun-16 12:31N 35°23' E 024°29'1 1.1
2018-Jun-16 12:00N 35°22' E 024°29'0 0.0
2018-Jun-16 04:40N 35°22' E 024°29'0 0.0
2018-Jun-16 04:30N 35°22' E 024°29'1 1.9
2018-Jun-16 04:00N 35°23' E 024°29'612.6
2018-Jun-16 03:30N 35°29' E 024°27'13712.5
2018-Jun-15 16:32N 37°41' E 023°41'112.6
2018-Jun-15 16:29N 37°41' E 023°41'612.2
2018-Jun-15 16:00N 37°47' E 023°38'612.4
2018-Jun-15 15:30N 37°53' E 023°36'510.8
2018-Jun-15 15:00N 37°58' E 023°33'4 8.9
2018-Jun-15 14:31N 38°02' E 023°33'0 0.0
2018-Jun-15 14:00N 38°02' E 023°33'0 0.0
2018-Jun-15 13:30N 38°02' E 023°33'0 0.0
2018-Jun-15 13:01N 38°02' E 023°33'0 0.0
2018-Jun-15 12:30N 38°02' E 023°33'0 0.0
2018-Jun-15 12:00N 38°02' E 023°33'0 0.0
2018-Jun-15 11:30N 38°02' E 023°33'0 0.0
2018-Jun-15 11:00N 38°02' E 023°33'0 0.0
2018-Jun-15 10:31N 38°02' E 023°33'0 0.0
2018-Jun-15 10:00N 38°02' E 023°33'0 0.0
2018-Jun-15 09:30N 38°02' E 023°33'0 0.0
2018-Jun-15 09:00N 38°02' E 023°33'0 0.0
2018-Jun-15 08:30N 38°02' E 023°33'0 0.0
2018-Jun-15 08:01N 38°02' E 023°33'0 0.0
2018-Jun-15 07:30N 38°02' E 023°33'0 0.0
2018-Jun-15 06:59N 38°02' E 023°33'0 0.0
2018-Jun-15 06:30N 38°02' E 023°33'0 0.0
2018-Jun-15 06:00N 38°02' E 023°33'0 0.0
2018-Jun-15 05:31N 38°02' E 023°33'0 0.0
2018-Jun-15 05:00N 38°02' E 023°33'0 0.0
2018-Jun-15 04:30N 38°02' E 023°33'0 0.0
2018-Jun-15 04:00N 38°02' E 023°33'0 0.0
2018-Jun-15 03:31N 38°02' E 023°33'0 0.0
2018-Jun-15 03:00N 38°02' E 023°33'0 0.0
2018-Jun-15 02:31N 38°02' E 023°33'0 0.0
2018-Jun-15 02:00N 38°02' E 023°33'0 0.0
2018-Jun-15 01:30N 38°02' E 023°33'0 0.0
2018-Jun-15 01:00N 38°02' E 023°33'0 0.0
2018-Jun-15 00:30N 38°02' E 023°33'0 0.0
2018-Jun-15 00:00N 38°02' E 023°33'0 0.0
2018-Jun-14 23:31N 38°02' E 023°33'0 0.0
2018-Jun-14 23:01N 38°02' E 023°33'0 0.0
2018-Jun-14 22:30N 38°02' E 023°33'0 0.0
2018-Jun-14 22:00N 38°02' E 023°33'0 0.0
2018-Jun-14 21:31N 38°02' E 023°33'0 0.0
2018-Jun-14 21:01N 38°02' E 023°33'0 0.0
2018-Jun-14 20:31N 38°02' E 023°33'0 0.0
2018-Jun-14 20:00N 38°02' E 023°33'0 0.0
2018-Jun-14 19:30N 38°02' E 023°33'0 0.0
2018-Jun-14 19:00N 38°02' E 023°33'0 0.0
2018-Jun-14 18:30N 38°02' E 023°33'0 0.0
2018-Jun-14 18:00N 38°02' E 023°33'0 0.0
2018-Jun-14 17:31N 38°02' E 023°33'0 0.0
2018-Jun-14 17:01N 38°02' E 023°33'0 0.0
2018-Jun-14 16:30N 38°02' E 023°33'0 0.0
2018-Jun-14 16:00N 38°02' E 023°33'0 0.0
2018-Jun-14 15:30N 38°02' E 023°33'0 0.0
2018-Jun-14 14:59N 38°02' E 023°33'0 0.0
2018-Jun-14 14:31N 38°02' E 023°33'0 0.5
2018-Jun-14 14:01N 38°02' E 023°33'510.3
2018-Jun-14 13:30N 37°57' E 023°35'713.8
2018-Jun-14 13:00N 37°51' E 023°39'714.2
2018-Jun-14 12:30N 37°45' E 023°43'713.3
2018-Jun-14 12:00N 37°40' E 023°49'4413.7
2018-Jun-14 08:46N 37°31' E 024°44'313.7
2018-Jun-14 08:31N 37°31' E 024°48'713.8
2018-Jun-14 08:00N 37°31' E 024°57'714.1
2018-Jun-14 07:30N 37°30' E 025°06'713.4
2018-Jun-14 07:00N 37°28' E 025°14'4 8.8
2018-Jun-14 06:30N 37°28' E 025°19'0 0.0
2018-Jun-14 06:00N 37°28' E 025°19'0 0.0
2018-Jun-14 05:30N 37°28' E 025°19'0 0.0
2018-Jun-14 05:00N 37°28' E 025°19'0 0.0
2018-Jun-14 04:29N 37°28' E 025°19'0 0.0
2018-Jun-14 03:59N 37°28' E 025°19'0 0.0
2018-Jun-14 03:28N 37°28' E 025°19'0 0.0
2018-Jun-14 03:00N 37°28' E 025°19'0 0.0
2018-Jun-14 02:29N 37°28' E 025°19'0 0.0
2018-Jun-14 02:00N 37°28' E 025°19'0 0.0
2018-Jun-14 01:30N 37°28' E 025°19'0 0.0
2018-Jun-14 01:00N 37°28' E 025°19'0 0.0
2018-Jun-14 00:30N 37°28' E 025°19'0 0.0
2018-Jun-14 00:00N 37°28' E 025°19'0 0.0
2018-Jun-13 23:30N 37°28' E 025°19'0 0.0
2018-Jun-13 23:00N 37°28' E 025°19'1 2.1
2018-Jun-13 22:30N 37°28' E 025°18'713.9
2018-Jun-13 22:00N 37°30' E 025°10'713.5
2018-Jun-13 21:30N 37°31' E 025°02'813.3
2018-Jun-13 20:53N 37°33' E 024°51'45 8.2
2018-Jun-13 15:26N 37°38' E 023°55'1013.2
2018-Jun-13 14:42N 37°40' E 023°43'213.2
2018-Jun-13 14:30N 37°42' E 023°41'713.3
2018-Jun-13 14:00N 37°48' E 023°37'612.9
2018-Jun-13 13:30N 37°54' E 023°36'510.7
2018-Jun-13 13:00N 37°59' E 023°33'3 5.8
2018-Jun-13 12:31N 38°02' E 023°33'0 0.0
2018-Jun-13 12:00N 38°02' E 023°33'0 0.0
2018-Jun-13 11:31N 38°02' E 023°33'0 0.0
2018-Jun-13 11:00N 38°02' E 023°33'0 0.0
2018-Jun-13 10:30N 38°02' E 023°33'0 0.0
2018-Jun-13 10:00N 38°02' E 023°33'0 0.0
2018-Jun-13 09:30N 38°02' E 023°33'0 0.0
2018-Jun-13 09:00N 38°02' E 023°33'0 0.0
2018-Jun-13 08:31N 38°02' E 023°33'0 0.0
2018-Jun-13 08:01N 38°02' E 023°33'0 0.0
2018-Jun-13 07:31N 38°02' E 023°33'0 0.0
2018-Jun-13 07:00N 38°02' E 023°33'0 0.0
2018-Jun-13 06:30N 38°02' E 023°33'0 0.0
2018-Jun-13 06:00N 38°02' E 023°33'3 5.2
2018-Jun-13 05:30N 37°59' E 023°33'5 9.8
2018-Jun-13 05:00N 37°55' E 023°35'613.0
2018-Jun-13 04:30N 37°50' E 023°40'713.7
2018-Jun-13 04:00N 37°44' E 023°44'713.5
2018-Jun-13 03:30N 37°40' E 023°51'4213.2
2018-Jun-13 00:18N 37°31' E 024°44'413.3
2018-Jun-13 00:00N 37°31' E 024°49'713.6
2018-Jun-12 23:30N 37°31' E 024°57'713.7
2018-Jun-12 23:00N 37°30' E 025°06'713.5
2018-Jun-12 22:28N 37°28' E 025°15'4 7.9
2018-Jun-12 21:59N 37°28' E 025°19'6 2.9
2018-Jun-12 20:00N 37°22' E 025°17'713.2
2018-Jun-12 19:30N 37°16' E 025°19'713.1
2018-Jun-12 19:01N 37°09' E 025°21'3 6.4
2018-Jun-12 18:30N 37°06' E 025°22'2 4.3
2018-Jun-12 18:00N 37°08' E 025°20'611.6
2018-Jun-12 17:30N 37°10' E 025°13'610.9
2018-Jun-12 16:58N 37°05' E 025°08'0 0.4
2018-Jun-12 16:30N 37°05' E 025°08'6 0.6
2018-Jun-12 05:11N 37°03' E 025°01'314.2
2018-Jun-12 05:00N 37°05' E 025°03'5 3.9
2018-Jun-12 03:43N 37°07' E 025°09'414.1
2018-Jun-12 03:27N 37°09' E 025°12'612.6
2018-Jun-12 03:01N 37°09' E 025°19'3 6.3
2018-Jun-12 02:30N 37°06' E 025°22'1 1.9
2018-Jun-12 02:01N 37°07' E 025°22'713.7
2018-Jun-12 01:30N 37°14' E 025°20'713.7
2018-Jun-12 01:00N 37°21' E 025°18'713.2
2018-Jun-12 00:30N 37°27' E 025°18'1 2.8
2018-Jun-12 00:00N 37°28' E 025°19'0 0.0
2018-Jun-11 23:30N 37°28' E 025°19'0 0.0
2018-Jun-11 23:00N 37°28' E 025°19'0 0.0
2018-Jun-11 22:30N 37°28' E 025°19'0 0.0
2018-Jun-11 22:00N 37°28' E 025°19'0 0.1
2018-Jun-11 21:30N 37°28' E 025°19'4 8.0
2018-Jun-11 21:00N 37°29' E 025°14'612.0
2018-Jun-11 20:30N 37°29' E 025°07'712.2
2018-Jun-11 19:57N 37°31' E 024°58'512.3
2018-Jun-11 19:30N 37°31' E 024°52'5412.4
2018-Jun-11 15:11N 37°40' E 023°45'212.7
2018-Jun-11 15:00N 37°41' E 023°42'713.4
2018-Jun-11 14:30N 37°46' E 023°38'713.1
2018-Jun-11 14:00N 37°50' E 023°31'713.1
2018-Jun-11 13:30N 37°53' E 023°24'510.8
2018-Jun-11 13:00N 37°59' E 023°25'  
Track history (hours):
 
Tides and Currents Weather Stations Pressure Air Temp Water Temp Dewpoint Dewpoint Depression Visibility Wind Speed Wind Dir Waves Ship Positions

Kapetan Christos

Last reported at 2018-Jun-21 12:31 UTC. Time now 2018-Jun-21 12:29 UTC.
Position N 38°02' E 023°33'.

Length 98 m; draft 3.8 m.

Type: Cargo ship. MMSI: 241495000.

Date/timePositionNaut miles runAvg speedWind from/ knotsBaromVisibWave heightAir tempDewpointWater temp
2018-Jun-21 12:31N 38°02' E 023°33'3 5.2
2018-Jun-21 12:00N 37°59' E 023°33'612.2
2018-Jun-21 11:31N 37°55' E 023°37'714.2
2018-Jun-21 11:01N 37°48' E 023°41'914.0
2018-Jun-21 10:24N 37°41' E 023°47'4613.8
2018-Jun-21 07:05N 37°31' E 024°44'114.2
2018-Jun-21 07:00N 37°31' E 024°45'914.0
2018-Jun-21 06:24N 37°31' E 024°56'513.9
2018-Jun-21 06:00N 37°30' E 025°03'713.5
2018-Jun-21 05:30N 37°29' E 025°11'713.5
2018-Jun-21 05:00N 37°28' E 025°19'0 0.3
2018-Jun-21 04:29N 37°28' E 025°19'0 0.0
2018-Jun-21 04:00N 37°28' E 025°19'1 2.6
2018-Jun-21 03:30N 37°27' E 025°18'713.4
2018-Jun-21 03:00N 37°21' E 025°18'714.1
2018-Jun-21 02:30N 37°14' E 025°20'714.2
2018-Jun-21 02:01N 37°07' E 025°22'1 1.2
2018-Jun-21 01:30N 37°06' E 025°22'0 0.0
2018-Jun-21 01:01N 37°06' E 025°22'0 0.0
2018-Jun-21 00:31N 37°06' E 025°22'1 2.4
2018-Jun-21 00:01N 37°07' E 025°22'713.6
2018-Jun-20 23:30N 37°14' E 025°20'713.6
2018-Jun-20 23:00N 37°21' E 025°18'713.0
2018-Jun-20 22:30N 37°27' E 025°18'1 2.2
2018-Jun-20 21:59N 37°28' E 025°19'0 0.0
2018-Jun-20 21:30N 37°28' E 025°19'3 5.3
2018-Jun-20 21:00N 37°28' E 025°16'613.0
2018-Jun-20 20:30N 37°27' E 025°08'813.0
2018-Jun-20 19:53N 37°26' E 024°58'7 5.9
2018-Jun-20 18:45N 37°31' E 024°52'313.0
2018-Jun-20 18:30N 37°31' E 024°48'5212.6
2018-Jun-20 14:25N 37°40' E 023°44'513.1
2018-Jun-20 14:00N 37°44' E 023°40'713.5
2018-Jun-20 13:30N 37°50' E 023°36'713.2
2018-Jun-20 13:00N 37°57' E 023°35'510.9
2018-Jun-20 12:31N 38°02' E 023°33'0 0.4
2018-Jun-20 12:00N 38°02' E 023°33'0 0.0
2018-Jun-20 11:30N 38°02' E 023°33'0 0.0
2018-Jun-20 11:00N 38°02' E 023°33'0 0.0
2018-Jun-20 10:31N 38°02' E 023°33'0 0.0
2018-Jun-20 10:01N 38°02' E 023°33'0 0.0
2018-Jun-20 09:30N 38°02' E 023°33'0 0.0
2018-Jun-20 09:01N 38°02' E 023°33'0 0.0
2018-Jun-20 08:31N 38°02' E 023°33'0 0.0
2018-Jun-20 08:01N 38°02' E 023°33'0 0.0
2018-Jun-20 07:31N 38°02' E 023°33'0 0.0
2018-Jun-20 07:00N 38°02' E 023°33'0 0.0
2018-Jun-20 06:30N 38°02' E 023°33'0 0.0
2018-Jun-20 06:00N 38°02' E 023°33'0 0.0
2018-Jun-20 05:31N 38°02' E 023°33'0 0.0
2018-Jun-20 05:00N 38°02' E 023°33'0 0.0
2018-Jun-20 04:30N 38°02' E 023°33'0 0.0
2018-Jun-20 04:00N 38°02' E 023°33'0 0.0
2018-Jun-20 03:30N 38°02' E 023°33'0 0.0
2018-Jun-20 03:00N 38°02' E 023°33'0 0.0
2018-Jun-20 02:30N 38°02' E 023°33'0 0.0
2018-Jun-20 02:01N 38°02' E 023°33'0 0.0
2018-Jun-20 01:31N 38°02' E 023°33'0 0.0
2018-Jun-20 01:00N 38°02' E 023°33'0 0.0
2018-Jun-20 00:29N 38°02' E 023°33'0 0.0
2018-Jun-20 00:00N 38°02' E 023°33'0 0.0
2018-Jun-19 23:30N 38°02' E 023°33'0 0.0
2018-Jun-19 23:00N 38°02' E 023°33'0 0.0
2018-Jun-19 22:30N 38°02' E 023°33'0 0.0
2018-Jun-19 22:01N 38°02' E 023°33'0 0.0
2018-Jun-19 21:31N 38°02' E 023°33'0 0.0
2018-Jun-19 21:00N 38°02' E 023°33'0 0.0
2018-Jun-19 20:30N 38°02' E 023°33'0 0.0
2018-Jun-19 20:00N 38°02' E 023°33'0 0.0
2018-Jun-19 19:31N 38°02' E 023°33'0 0.0
2018-Jun-19 19:00N 38°02' E 023°33'0 0.0
2018-Jun-19 18:30N 38°02' E 023°33'0 0.0
2018-Jun-19 18:00N 38°02' E 023°33'0 0.0
2018-Jun-19 17:30N 38°02' E 023°33'0 0.0
2018-Jun-19 17:00N 38°02' E 023°33'0 0.0
2018-Jun-19 16:30N 38°02' E 023°33'0 0.0
2018-Jun-19 16:00N 38°02' E 023°33'0 0.0
2018-Jun-19 15:30N 38°02' E 023°33'0 0.0
2018-Jun-19 15:00N 38°02' E 023°33'0 0.0
2018-Jun-19 14:30N 38°02' E 023°33'3 6.3
2018-Jun-19 14:01N 37°59' E 023°33'611.8
2018-Jun-19 13:30N 37°54' E 023°37'713.6
2018-Jun-19 13:01N 37°48' E 023°41'813.7
2018-Jun-19 12:26N 37°41' E 023°46'4913.7
2018-Jun-19 08:53N 37°32' E 024°47'814.3
2018-Jun-19 08:18N 37°31' E 024°57'513.7
2018-Jun-19 07:57N 37°30' E 025°03'614.0
2018-Jun-19 07:30N 37°29' E 025°11'713.6
2018-Jun-19 07:00N 37°28' E 025°19'0 0.6
2018-Jun-19 06:31N 37°28' E 025°19'0 0.2
2018-Jun-19 03:40N 37°28' E 025°19'0 0.2
2018-Jun-19 03:30N 37°28' E 025°19'0 0.0
2018-Jun-19 03:00N 37°28' E 025°19'0 0.0
2018-Jun-19 02:30N 37°28' E 025°19'0 0.0
2018-Jun-19 02:00N 37°28' E 025°19'0 0.1
2018-Jun-19 01:30N 37°28' E 025°19'0 0.1
2018-Jun-19 01:00N 37°28' E 025°19'0 0.0
2018-Jun-19 00:31N 37°28' E 025°19'0 0.1
2018-Jun-19 00:00N 37°28' E 025°19'0 0.0
2018-Jun-18 23:30N 37°28' E 025°19'0 0.0
2018-Jun-18 23:00N 37°28' E 025°19'0 0.0
2018-Jun-18 22:30N 37°28' E 025°19'0 0.0
2018-Jun-18 22:01N 37°28' E 025°19'0 0.1
2018-Jun-18 21:30N 37°28' E 025°19'0 0.7
2018-Jun-18 21:00N 37°28' E 025°19'0 0.0
2018-Jun-18 20:30N 37°28' E 025°19'0 0.0
2018-Jun-18 20:00N 37°28' E 025°19'0 0.1
2018-Jun-18 19:30N 37°28' E 025°19'5 9.2
2018-Jun-18 19:00N 37°28' E 025°14'713.1
2018-Jun-18 18:30N 37°29' E 025°06'713.4
2018-Jun-18 18:00N 37°31' E 024°57'713.3
2018-Jun-18 17:30N 37°31' E 024°49'5113.3
2018-Jun-18 13:41N 37°40' E 023°46'313.5
2018-Jun-18 13:30N 37°41' E 023°43'713.3
2018-Jun-18 13:00N 37°46' E 023°39'713.4
2018-Jun-18 12:30N 37°53' E 023°36'611.6
2018-Jun-18 12:00N 37°58' E 023°33'4 0.1
2018-Jun-17 09:14N 38°02' E 023°33'0 0.0
2018-Jun-17 09:00N 38°02' E 023°33'4 7.2
2018-Jun-17 08:30N 37°58' E 023°33'612.5
2018-Jun-17 08:00N 37°54' E 023°38'713.7
2018-Jun-17 07:31N 37°47' E 023°41'5212.8
2018-Jun-17 03:26N 37°32' E 024°44'614.0
2018-Jun-17 03:00N 37°32' E 024°52'913.5
2018-Jun-17 02:22N 37°30' E 025°02'513.5
2018-Jun-17 02:00N 37°29' E 025°08'713.7
2018-Jun-17 01:30N 37°28' E 025°17'2 4.3
2018-Jun-17 01:00N 37°28' E 025°19'0 0.0
2018-Jun-17 00:30N 37°28' E 025°19'0 0.0
2018-Jun-17 00:00N 37°28' E 025°19'0 0.0
2018-Jun-16 23:30N 37°28' E 025°19'0 0.0
2018-Jun-16 23:00N 37°28' E 025°19'0 0.9
2018-Jun-16 22:30N 37°27' E 025°19'611.9
2018-Jun-16 22:00N 37°22' E 025°17'713.8
2018-Jun-16 21:30N 37°15' E 025°18'713.7
2018-Jun-16 21:00N 37°08' E 025°19'713.6
2018-Jun-16 20:30N 37°01' E 025°17'10113.3
2018-Jun-16 12:56N 35°28' E 024°31'512.8
2018-Jun-16 12:31N 35°23' E 024°29'1 1.1
2018-Jun-16 12:00N 35°22' E 024°29'0 0.0
2018-Jun-16 04:40N 35°22' E 024°29'0 0.0
2018-Jun-16 04:30N 35°22' E 024°29'1 1.9
2018-Jun-16 04:00N 35°23' E 024°29'612.6
2018-Jun-16 03:30N 35°29' E 024°27'13712.5
2018-Jun-15 16:32N 37°41' E 023°41'112.6
2018-Jun-15 16:29N 37°41' E 023°41'612.2
2018-Jun-15 16:00N 37°47' E 023°38'612.4
2018-Jun-15 15:30N 37°53' E 023°36'510.8
2018-Jun-15 15:00N 37°58' E 023°33'4 8.9
2018-Jun-15 14:31N 38°02' E 023°33'0 0.0
2018-Jun-15 14:00N 38°02' E 023°33'0 0.0
2018-Jun-15 13:30N 38°02' E 023°33'0 0.0
2018-Jun-15 13:01N 38°02' E 023°33'0 0.0
2018-Jun-15 12:30N 38°02' E 023°33'0 0.0
2018-Jun-15 12:00N 38°02' E 023°33'0 0.0
2018-Jun-15 11:30N 38°02' E 023°33'0 0.0
2018-Jun-15 11:00N 38°02' E 023°33'0 0.0
2018-Jun-15 10:31N 38°02' E 023°33'0 0.0
2018-Jun-15 10:00N 38°02' E 023°33'0 0.0
2018-Jun-15 09:30N 38°02' E 023°33'0 0.0
2018-Jun-15 09:00N 38°02' E 023°33'0 0.0
2018-Jun-15 08:30N 38°02' E 023°33'0 0.0
2018-Jun-15 08:01N 38°02' E 023°33'0 0.0
2018-Jun-15 07:30N 38°02' E 023°33'0 0.0
2018-Jun-15 06:59N 38°02' E 023°33'0 0.0
2018-Jun-15 06:30N 38°02' E 023°33'0 0.0
2018-Jun-15 06:00N 38°02' E 023°33'0 0.0
2018-Jun-15 05:31N 38°02' E 023°33'0 0.0
2018-Jun-15 05:00N 38°02' E 023°33'0 0.0
2018-Jun-15 04:30N 38°02' E 023°33'0 0.0
2018-Jun-15 04:00N 38°02' E 023°33'0 0.0
2018-Jun-15 03:31N 38°02' E 023°33'0 0.0
2018-Jun-15 03:00N 38°02' E 023°33'0 0.0
2018-Jun-15 02:31N 38°02' E 023°33'0 0.0
2018-Jun-15 02:00N 38°02' E 023°33'0 0.0
2018-Jun-15 01:30N 38°02' E 023°33'0 0.0
2018-Jun-15 01:00N 38°02' E 023°33'0 0.0
2018-Jun-15 00:30N 38°02' E 023°33'0 0.0
2018-Jun-15 00:00N 38°02' E 023°33'0 0.0
2018-Jun-14 23:31N 38°02' E 023°33'0 0.0
2018-Jun-14 23:01N 38°02' E 023°33'0 0.0
2018-Jun-14 22:30N 38°02' E 023°33'0 0.0
2018-Jun-14 22:00N 38°02' E 023°33'0 0.0
2018-Jun-14 21:31N 38°02' E 023°33'0 0.0
2018-Jun-14 21:01N 38°02' E 023°33'0 0.0
2018-Jun-14 20:31N 38°02' E 023°33'0 0.0
2018-Jun-14 20:00N 38°02' E 023°33'0 0.0
2018-Jun-14 19:30N 38°02' E 023°33'0 0.0
2018-Jun-14 19:00N 38°02' E 023°33'0 0.0
2018-Jun-14 18:30N 38°02' E 023°33'0 0.0
2018-Jun-14 18:00N 38°02' E 023°33'0 0.0
2018-Jun-14 17:31N 38°02' E 023°33'0 0.0
2018-Jun-14 17:01N 38°02' E 023°33'0 0.0
2018-Jun-14 16:30N 38°02' E 023°33'0 0.0
2018-Jun-14 16:00N 38°02' E 023°33'0 0.0
2018-Jun-14 15:30N 38°02' E 023°33'0 0.0
2018-Jun-14 14:59N 38°02' E 023°33'0 0.0
2018-Jun-14 14:31N 38°02' E 023°33'0 0.5
2018-Jun-14 14:01N 38°02' E 023°33'510.3
2018-Jun-14 13:30N 37°57' E 023°35'713.8
2018-Jun-14 13:00N 37°51' E 023°39'714.2
2018-Jun-14 12:30N 37°45' E 023°43'713.3
2018-Jun-14 12:00N 37°40' E 023°49'4413.7
2018-Jun-14 08:46N 37°31' E 024°44'313.7
2018-Jun-14 08:31N 37°31' E 024°48'713.8
2018-Jun-14 08:00N 37°31' E 024°57'714.1
2018-Jun-14 07:30N 37°30' E 025°06'713.4
2018-Jun-14 07:00N 37°28' E 025°14'4 8.8
2018-Jun-14 06:30N 37°28' E 025°19'0 0.0
2018-Jun-14 06:00N 37°28' E 025°19'0 0.0
2018-Jun-14 05:30N 37°28' E 025°19'0 0.0
2018-Jun-14 05:00N 37°28' E 025°19'0 0.0
2018-Jun-14 04:29N 37°28' E 025°19'0 0.0
2018-Jun-14 03:59N 37°28' E 025°19'0 0.0
2018-Jun-14 03:28N 37°28' E 025°19'0 0.0
2018-Jun-14 03:00N 37°28' E 025°19'0 0.0
2018-Jun-14 02:29N 37°28' E 025°19'0 0.0
2018-Jun-14 02:00N 37°28' E 025°19'0 0.0
2018-Jun-14 01:30N 37°28' E 025°19'0 0.0
2018-Jun-14 01:00N 37°28' E 025°19'0 0.0
2018-Jun-14 00:30N 37°28' E 025°19'0 0.0
2018-Jun-14 00:00N 37°28' E 025°19'0 0.0
2018-Jun-13 23:30N 37°28' E 025°19'0 0.0
2018-Jun-13 23:00N 37°28' E 025°19'1 2.1
2018-Jun-13 22:30N 37°28' E 025°18'713.9
2018-Jun-13 22:00N 37°30' E 025°10'713.5
2018-Jun-13 21:30N 37°31' E 025°02'813.3
2018-Jun-13 20:53N 37°33' E 024°51'45 8.2
2018-Jun-13 15:26N 37°38' E 023°55'1013.2
2018-Jun-13 14:42N 37°40' E 023°43'213.2
2018-Jun-13 14:30N 37°42' E 023°41'713.3
2018-Jun-13 14:00N 37°48' E 023°37'612.9
2018-Jun-13 13:30N 37°54' E 023°36'510.7
2018-Jun-13 13:00N 37°59' E 023°33'3 5.8
2018-Jun-13 12:31N 38°02' E 023°33'0 0.0
2018-Jun-13 12:00N 38°02' E 023°33'0 0.0
2018-Jun-13 11:31N 38°02' E 023°33'0 0.0
2018-Jun-13 11:00N 38°02' E 023°33'0 0.0
2018-Jun-13 10:30N 38°02' E 023°33'0 0.0
2018-Jun-13 10:00N 38°02' E 023°33'0 0.0
2018-Jun-13 09:30N 38°02' E 023°33'0 0.0
2018-Jun-13 09:00N 38°02' E 023°33'0 0.0
2018-Jun-13 08:31N 38°02' E 023°33'0 0.0
2018-Jun-13 08:01N 38°02' E 023°33'0 0.0
2018-Jun-13 07:31N 38°02' E 023°33'0 0.0
2018-Jun-13 07:00N 38°02' E 023°33'0 0.0
2018-Jun-13 06:30N 38°02' E 023°33'0 0.0
2018-Jun-13 06:00N 38°02' E 023°33'3 5.2
2018-Jun-13 05:30N 37°59' E 023°33'5 9.8
2018-Jun-13 05:00N 37°55' E 023°35'613.0
2018-Jun-13 04:30N 37°50' E 023°40'713.7
2018-Jun-13 04:00N 37°44' E 023°44'713.5
2018-Jun-13 03:30N 37°40' E 023°51'4213.2
2018-Jun-13 00:18N 37°31' E 024°44'413.3
2018-Jun-13 00:00N 37°31' E 024°49'713.6
2018-Jun-12 23:30N 37°31' E 024°57'713.7
2018-Jun-12 23:00N 37°30' E 025°06'713.5
2018-Jun-12 22:28N 37°28' E 025°15'4 7.9
2018-Jun-12 21:59N 37°28' E 025°19'6 2.9
2018-Jun-12 20:00N 37°22' E 025°17'713.2
2018-Jun-12 19:30N 37°16' E 025°19'713.1
2018-Jun-12 19:01N 37°09' E 025°21'3 6.4
2018-Jun-12 18:30N 37°06' E 025°22'2 4.3
2018-Jun-12 18:00N 37°08' E 025°20'611.6
2018-Jun-12 17:30N 37°10' E 025°13'610.9
2018-Jun-12 16:58N 37°05' E 025°08'0 0.4
2018-Jun-12 16:30N 37°05' E 025°08'6 0.6
2018-Jun-12 05:11N 37°03' E 025°01'314.2
2018-Jun-12 05:00N 37°05' E 025°03'5 3.9
2018-Jun-12 03:43N 37°07' E 025°09'414.1
2018-Jun-12 03:27N 37°09' E 025°12'612.6
2018-Jun-12 03:01N 37°09' E 025°19'3 6.3
2018-Jun-12 02:30N 37°06' E 025°22'1 1.9
2018-Jun-12 02:01N 37°07' E 025°22'713.7
2018-Jun-12 01:30N 37°14' E 025°20'713.7
2018-Jun-12 01:00N 37°21' E 025°18'713.2
2018-Jun-12 00:30N 37°27' E 025°18'1 2.8
2018-Jun-12 00:00N 37°28' E 025°19'0 0.0
2018-Jun-11 23:30N 37°28' E 025°19'0 0.0
2018-Jun-11 23:00N 37°28' E 025°19'0 0.0
2018-Jun-11 22:30N 37°28' E 025°19'0 0.0
2018-Jun-11 22:00N 37°28' E 025°19'0 0.1
2018-Jun-11 21:30N 37°28' E 025°19'4 8.0
2018-Jun-11 21:00N 37°29' E 025°14'612.0
2018-Jun-11 20:30N 37°29' E 025°07'712.2
2018-Jun-11 19:57N 37°31' E 024°58'512.3
2018-Jun-11 19:30N 37°31' E 024°52'5412.4
2018-Jun-11 15:11N 37°40' E 023°45'212.7
2018-Jun-11 15:00N 37°41' E 023°42'713.4
2018-Jun-11 14:30N 37°46' E 023°38'713.1
2018-Jun-11 14:00N 37°50' E 023°31'713.1
2018-Jun-11 13:30N 37°53' E 023°24'510.8
2018-Jun-11 13:00N 37°59' E 023°25'  

Dump ship's entire track history